createdAt,value
2022-12-23T00:01:34.256Z,95.32
2022-12-23T00:04:02.694Z,95.79
2022-12-23T00:06:30.798Z,95.85
2022-12-23T00:09:00.299Z,94.75
2022-12-23T00:11:29.084Z,92.65
2022-12-23T00:14:21.207Z,92.41
2022-12-23T00:16:51.258Z,91.73
2022-12-23T00:19:20.051Z,91.41
2022-12-23T00:21:48.873Z,92.25
2022-12-23T00:24:17.669Z,92.37
2022-12-23T00:26:45.785Z,92.34
2022-12-23T00:29:14.094Z,91.83
2022-12-23T00:31:42.206Z,92.29
2022-12-23T00:34:12.663Z,92.06
2022-12-23T00:36:41.102Z,92.62
2022-12-23T00:39:31.450Z,92.71
2022-12-23T00:42:18.182Z,92.97
2022-12-23T00:44:46.632Z,94.03
2022-12-23T00:47:34.565Z,93.15
2022-12-23T00:50:02.838Z,93.36
2022-12-23T00:52:30.893Z,93.17
2022-12-23T00:54:59.192Z,94.28
2022-12-23T00:57:27.136Z,95.29
2022-12-23T00:59:55.409Z,94.25
2022-12-23T01:02:42.121Z,95.87
2022-12-23T01:05:30.274Z,96.64
2022-12-23T01:07:58.340Z,96.99
2022-12-23T01:10:27.801Z,96.65
2022-12-23T01:12:56.382Z,96.38
2022-12-23T01:15:24.660Z,95.70
2022-12-23T01:17:52.937Z,95.68
2022-12-23T01:20:21.360Z,96.14
2022-12-23T01:22:49.533Z,95.48
2022-12-23T01:25:18.365Z,96.16
2022-12-23T01:27:46.286Z,95.23
2022-12-23T01:30:14.793Z,95.61
2022-12-23T01:32:42.844Z,94.32
2022-12-23T01:35:11.216Z,94.13
2022-12-23T01:37:39.638Z,94.16
2022-12-23T01:40:09.668Z,93.51
2022-12-23T01:42:47.563Z,92.62
2022-12-23T01:45:28.114Z,92.72
2022-12-23T01:48:05.307Z,92.59
2022-12-23T01:51:12.585Z,92.62
2022-12-23T01:53:51.367Z,92.68
2022-12-23T01:56:47.708Z,91.85
2022-12-23T01:59:34.896Z,91.75
2022-12-23T02:02:23.067Z,92.29
2022-12-23T02:04:51.792Z,92.74
2022-12-23T02:07:40.370Z,93.19
2022-12-23T02:10:09.188Z,93.41
2022-12-23T02:13:03.075Z,94.44
2022-12-23T02:16:18.441Z,94.49
2022-12-23T02:19:10.484Z,94.01
2022-12-23T02:21:45.531Z,93.91
2022-12-23T02:24:41.234Z,94.36
2022-12-23T02:27:17.447Z,93.53
2022-12-23T02:30:06.024Z,93.37
2022-12-23T02:32:48.384Z,94.65
2022-12-23T02:35:34.045Z,94.69
2022-12-23T02:38:09.583Z,94.21
2022-12-23T02:40:54.488Z,93.97
2022-12-23T02:44:00.456Z,93.57
2022-12-23T02:46:44.177Z,94.51
2022-12-23T02:49:26.676Z,93.33
2022-12-23T02:51:58.333Z,94.02
2022-12-23T02:54:38.982Z,93.93
2022-12-23T02:57:09.996Z,93.93
2022-12-23T02:59:42.856Z,92.22
2022-12-23T03:02:12.441Z,92.86
2022-12-23T03:04:42.450Z,92.61
2022-12-23T03:07:33.539Z,93.09
2022-12-23T03:10:23.403Z,93.81
2022-12-23T03:13:23.122Z,94.00
2022-12-23T03:16:08.345Z,93.95
2022-12-23T03:19:15.003Z,93.63
2022-12-23T03:22:02.452Z,92.85
2022-12-23T03:24:56.583Z,93.17
2022-12-23T03:28:17.116Z,92.46
2022-12-23T03:30:51.209Z,92.43
2022-12-23T03:33:21.821Z,91.17
2022-12-23T03:35:56.510Z,91.17
2022-12-23T03:38:26.223Z,90.26
2022-12-23T03:40:58.429Z,89.85
2022-12-23T03:43:37.072Z,88.87
2022-12-23T03:46:40.450Z,88.91
2022-12-23T03:49:21.868Z,88.46
2022-12-23T03:52:03.774Z,88.59
2022-12-23T03:54:47.622Z,88.42
2022-12-23T03:57:16.472Z,88.80
2022-12-23T03:59:47.753Z,87.66
2022-12-23T04:02:33.977Z,87.50
2022-12-23T04:05:34.285Z,87.58
2022-12-23T04:08:17.210Z,87.40
2022-12-23T04:10:46.120Z,88.08
2022-12-23T04:13:15.087Z,88.29
2022-12-23T04:15:43.609Z,87.99
2022-12-23T04:18:12.539Z,88.29
2022-12-23T04:20:40.563Z,88.69
2022-12-23T04:23:10.242Z,89.23
2022-12-23T04:25:38.296Z,89.16
2022-12-23T04:28:06.696Z,89.20
2022-12-23T04:30:35.079Z,89.33
2022-12-23T04:33:05.025Z,88.96
2022-12-23T04:35:33.003Z,88.44
2022-12-23T04:38:01.255Z,88.02
2022-12-23T04:40:29.197Z,88.66
2022-12-23T04:42:57.470Z,88.23
2022-12-23T04:45:25.414Z,88.89
2022-12-23T04:47:54.947Z,88.72
2022-12-23T04:50:22.915Z,88.81
2022-12-23T04:52:51.240Z,88.65
2022-12-23T04:55:19.270Z,88.77
2022-12-23T04:57:47.715Z,89.08
2022-12-23T05:00:16.071Z,88.55
2022-12-23T05:02:44.546Z,89.18
2022-12-23T05:05:12.647Z,89.18
2022-12-23T05:07:40.954Z,89.18
2022-12-23T05:10:09.695Z,90.39
2022-12-23T05:12:37.978Z,90.48
2022-12-23T05:15:06.563Z,89.57
2022-12-23T05:17:36.170Z,90.55
2022-12-23T05:20:04.285Z,90.59
2022-12-23T05:22:32.617Z,89.12
2022-12-23T05:25:00.575Z,88.96
2022-12-23T05:27:28.865Z,89.00
2022-12-23T05:29:56.736Z,88.73
2022-12-23T05:32:25.055Z,89.16
2022-12-23T05:34:52.905Z,88.31
2022-12-23T05:37:21.184Z,88.87
2022-12-23T05:39:49.095Z,89.27
2022-12-23T05:42:19.573Z,89.78
2022-12-23T05:44:47.466Z,89.61
2022-12-23T05:47:15.787Z,89.92
2022-12-23T05:49:43.755Z,90.46
2022-12-23T05:52:12.068Z,89.56
2022-12-23T05:54:39.987Z,88.89
2022-12-23T05:57:08.215Z,88.94
2022-12-23T05:59:36.227Z,89.46
2022-12-23T06:02:04.888Z,89.21
2022-12-23T06:04:32.997Z,87.85
2022-12-23T06:07:01.255Z,87.76
2022-12-23T06:09:29.254Z,90.26
2022-12-23T06:11:57.639Z,89.37
2022-12-23T06:14:29.068Z,88.63
2022-12-23T06:16:59.170Z,88.15
2022-12-23T06:19:27.676Z,87.08
2022-12-23T06:21:56.151Z,86.67
2022-12-23T06:24:24.062Z,86.97
2022-12-23T06:26:56.981Z,87.74
2022-12-23T06:29:25.619Z,88.53
2022-12-23T06:31:54.065Z,89.20
2022-12-23T06:34:22.207Z,88.65
2022-12-23T06:36:50.553Z,87.89
2022-12-23T06:39:18.436Z,87.98
2022-12-23T06:41:46.804Z,88.00
2022-12-23T06:44:15.074Z,87.98
2022-12-23T06:46:44.546Z,88.30
2022-12-23T06:49:13.695Z,88.32
2022-12-23T06:51:42.527Z,89.58
2022-12-23T06:54:12.223Z,88.24
2022-12-23T06:56:40.597Z,87.80
2022-12-23T06:59:08.585Z,87.35
2022-12-23T07:01:37.037Z,87.70
2022-12-23T07:04:05.245Z,87.42
2022-12-23T07:06:34.882Z,86.92
2022-12-23T07:09:02.950Z,86.39
2022-12-23T07:11:31.270Z,86.12
2022-12-23T07:14:00.778Z,85.64
2022-12-23T07:16:29.118Z,86.18
2022-12-23T07:18:57.076Z,85.61
2022-12-23T07:21:29.587Z,86.36
2022-12-23T07:23:58.323Z,85.80
2022-12-23T07:26:27.900Z,86.53
2022-12-23T07:28:56.391Z,85.97
2022-12-23T07:31:24.704Z,84.88
2022-12-23T07:33:52.679Z,84.75
2022-12-23T07:36:20.980Z,84.79
2022-12-23T07:38:52.451Z,85.64
2022-12-23T07:41:21.062Z,85.69
2022-12-23T07:43:49.019Z,85.22
2022-12-23T07:46:17.421Z,85.88
2022-12-23T07:48:45.518Z,87.01
2022-12-23T07:51:13.939Z,87.09
2022-12-23T07:53:41.929Z,87.74
2022-12-23T07:56:10.200Z,90.14
2022-12-23T07:58:38.109Z,89.87
2022-12-23T08:01:08.420Z,89.53
2022-12-23T08:03:37.460Z,89.21
2022-12-23T08:06:13.057Z,88.54
2022-12-23T08:08:44.273Z,87.39
2022-12-23T08:11:14.764Z,86.56
2022-12-23T08:13:44.819Z,84.28
2022-12-23T08:16:13.287Z,83.82
2022-12-23T08:18:42.172Z,83.09
2022-12-23T08:21:20.395Z,82.51
2022-12-23T08:23:49.012Z,80.96
2022-12-23T08:26:21.412Z,80.03
2022-12-23T08:28:54.232Z,78.17
2022-12-23T08:31:26.225Z,78.23
2022-12-23T08:33:56.930Z,78.70
2022-12-23T08:36:28.538Z,79.36
2022-12-23T08:38:58.835Z,79.59
2022-12-23T08:41:30.337Z,78.88
2022-12-23T08:43:58.789Z,79.55
2022-12-23T08:46:27.416Z,79.53
2022-12-23T08:48:56.111Z,78.21
2022-12-23T08:51:26.382Z,77.93
2022-12-23T08:54:01.059Z,77.72
2022-12-23T08:56:33.271Z,78.78
2022-12-23T08:59:01.848Z,78.68
2022-12-23T09:01:34.605Z,78.57
2022-12-23T09:04:07.044Z,78.29
2022-12-23T09:06:41.687Z,78.41
2022-12-23T09:09:13.415Z,77.78
2022-12-23T09:11:42.644Z,78.09
2022-12-23T09:14:11.354Z,77.80
2022-12-23T09:16:40.120Z,77.08
2022-12-23T09:19:08.214Z,77.04
2022-12-23T09:21:37.362Z,75.36
2022-12-23T09:24:05.794Z,75.37
2022-12-23T09:26:35.167Z,75.67
2022-12-23T09:29:03.413Z,72.45
2022-12-23T09:31:36.897Z,70.70
2022-12-23T09:34:06.524Z,71.69
2022-12-23T09:36:35.035Z,70.98
2022-12-23T09:39:04.135Z,68.81
2022-12-23T09:41:44.248Z,70.23
2022-12-23T09:44:43.416Z,69.88
2022-12-23T09:47:18.241Z,67.43
2022-12-23T09:49:55.723Z,67.49
2022-12-23T09:52:57.650Z,67.63
2022-12-23T09:55:36.808Z,68.52
2022-12-23T09:58:26.327Z,70.08
2022-12-23T10:01:23.294Z,69.61
2022-12-23T10:04:19.707Z,68.90
2022-12-23T10:07:11.408Z,68.96
2022-12-23T10:09:44.175Z,70.22
2022-12-23T10:12:40.212Z,70.66
2022-12-23T10:15:25.389Z,70.19
2022-12-23T10:17:58.955Z,72.03
2022-12-23T10:20:40.153Z,71.50
2022-12-23T10:23:21.423Z,73.49
2022-12-23T10:25:52.628Z,72.70
2022-12-23T10:28:20.861Z,71.39
2022-12-23T10:31:30.867Z,71.37
2022-12-23T10:34:17.315Z,70.11
2022-12-23T10:36:48.589Z,68.07
2022-12-23T10:39:31.177Z,66.59
2022-12-23T10:42:08.015Z,65.00
2022-12-23T10:45:06.765Z,62.86
2022-12-23T10:48:02.198Z,61.38
2022-12-23T10:50:46.656Z,63.36
2022-12-23T10:53:28.336Z,63.46
2022-12-23T10:55:58.366Z,64.24
2022-12-23T10:58:27.379Z,65.86
2022-12-23T11:00:58.077Z,67.92
2022-12-23T11:03:34.481Z,70.17
2022-12-23T11:06:06.601Z,70.88
2022-12-23T11:08:37.335Z,71.26
2022-12-23T11:11:07.157Z,71.79
2022-12-23T11:13:39.494Z,69.24
2022-12-23T11:16:26.765Z,67.26
2022-12-23T11:18:56.899Z,64.81
2022-12-23T11:21:25.840Z,63.83
2022-12-23T11:24:18.976Z,64.21
2022-12-23T11:26:50.866Z,63.23
2022-12-23T11:29:25.816Z,67.50
2022-12-23T11:31:54.690Z,65.10
2022-12-23T11:34:37.852Z,64.50
2022-12-23T11:37:07.680Z,65.42
2022-12-23T11:39:38.157Z,66.31
2022-12-23T11:42:16.128Z,64.11
2022-12-23T11:44:52.078Z,65.61
2022-12-23T11:47:29.659Z,65.97
2022-12-23T11:50:21.174Z,66.77
2022-12-23T11:52:53.946Z,67.37
2022-12-23T11:55:30.029Z,67.93
2022-12-23T11:57:58.040Z,68.56
2022-12-23T12:00:40.549Z,68.66
2022-12-23T12:03:19.846Z,68.21
2022-12-23T12:05:53.438Z,67.29
2022-12-23T12:08:28.629Z,68.01
2022-12-23T12:11:06.123Z,68.47
2022-12-23T12:13:41.526Z,68.27
2022-12-23T12:16:15.721Z,68.13
2022-12-23T12:18:47.116Z,67.36
2022-12-23T12:21:24.449Z,67.07
2022-12-23T12:24:17.258Z,67.32
2022-12-23T12:26:53.086Z,67.61
2022-12-23T12:29:27.656Z,68.74
2022-12-23T12:32:00.115Z,69.12
2022-12-23T12:35:03.429Z,69.55
2022-12-23T12:37:43.724Z,70.44
2022-12-23T12:40:26.900Z,70.87
2022-12-23T12:43:22.775Z,70.58
2022-12-23T12:45:53.229Z,69.82
2022-12-23T12:48:55.916Z,68.60
2022-12-23T12:51:30.445Z,67.37
2022-12-23T12:54:07.628Z,63.89
2022-12-23T12:56:47.594Z,60.73
2022-12-23T12:59:25.926Z,59.14
2022-12-23T13:02:06.266Z,59.30
2022-12-23T13:04:37.684Z,60.98
2022-12-23T13:07:31.660Z,62.01
2022-12-23T13:10:04.088Z,63.65
2022-12-23T13:12:56.872Z,64.13
2022-12-23T13:15:53.114Z,65.36
2022-12-23T13:18:40.695Z,66.01
2022-12-23T13:21:18.625Z,66.39
2022-12-23T13:23:51.419Z,66.67
2022-12-23T13:26:25.736Z,66.47
2022-12-23T13:29:22.657Z,66.34
2022-12-23T13:32:03.428Z,65.86
2022-12-23T13:34:59.025Z,67.13
2022-12-23T13:37:52.060Z,68.85
2022-12-23T13:41:06.277Z,69.51
2022-12-23T13:43:54.114Z,69.03
2022-12-23T13:47:03.303Z,69.71
2022-12-23T13:49:40.978Z,70.33
2022-12-23T13:52:21.629Z,72.25
2022-12-23T13:54:59.685Z,74.12
2022-12-23T13:58:00.192Z,72.93
2022-12-23T14:00:32.277Z,73.24
2022-12-23T14:03:00.421Z,73.38
2022-12-23T14:05:32.789Z,73.34
2022-12-23T14:08:21.147Z,73.40
2022-12-23T14:11:00.730Z,74.44
2022-12-23T14:13:51.727Z,74.21
2022-12-23T14:16:37.645Z,75.26
2022-12-23T14:19:25.711Z,76.19
2022-12-23T14:22:11.953Z,76.14
2022-12-23T14:25:17.289Z,77.30
2022-12-23T14:28:08.031Z,79.20
2022-12-23T14:30:38.568Z,78.63
2022-12-23T14:33:18.921Z,79.35
2022-12-23T14:35:46.845Z,78.05
2022-12-23T14:38:15.144Z,79.04
2022-12-23T14:40:43.162Z,79.03
2022-12-23T14:43:23.629Z,79.59
2022-12-23T14:45:53.580Z,80.29
2022-12-23T14:48:34.481Z,80.05
2022-12-23T14:51:11.446Z,79.60
2022-12-23T14:53:52.672Z,81.00
2022-12-23T14:56:26.455Z,80.61
2022-12-23T14:59:20.585Z,83.04
2022-12-23T15:01:57.135Z,83.59
2022-12-23T15:04:45.314Z,84.30
2022-12-23T15:07:33.640Z,84.08
2022-12-23T15:10:09.818Z,84.90
2022-12-23T15:12:40.810Z,83.46
2022-12-23T15:15:22.866Z,83.06
2022-12-23T15:18:06.255Z,83.40
2022-12-23T15:20:35.444Z,82.92
2022-12-23T15:23:16.544Z,83.88
2022-12-23T15:25:48.848Z,84.08
2022-12-23T15:28:23.200Z,85.33
2022-12-23T15:30:56.759Z,85.04
2022-12-23T15:36:32.415Z,86.04
2022-12-23T15:39:01.386Z,86.74
2022-12-23T15:41:30.157Z,88.86
2022-12-23T15:44:01.944Z,86.96
2022-12-23T15:46:32.692Z,87.55
2022-12-23T15:49:00.865Z,88.00
2022-12-23T15:52:07.130Z,87.01
2022-12-23T15:54:37.086Z,87.67
2022-12-23T15:57:06.005Z,86.46
2022-12-23T15:59:38.712Z,86.08
2022-12-23T16:05:47.901Z,90.12
2022-12-23T16:08:16.614Z,90.77
2022-12-23T16:10:58.685Z,88.42
2022-12-23T16:13:28.009Z,88.83
2022-12-23T16:16:35.251Z,89.40
2022-12-23T16:19:06.019Z,89.48
2022-12-23T16:21:37.516Z,91.28
2022-12-23T16:24:09.894Z,92.05
2022-12-23T16:26:43.185Z,91.44
2022-12-23T16:29:12.090Z,91.56
2022-12-23T16:31:45.732Z,91.23
2022-12-23T16:34:19.894Z,90.69
2022-12-23T16:36:47.931Z,90.57
2022-12-23T16:39:23.219Z,90.66
2022-12-23T16:41:51.309Z,89.70
2022-12-23T16:44:19.638Z,89.46
2022-12-23T16:46:50.694Z,90.47
2022-12-23T16:49:22.920Z,90.26
2022-12-23T16:51:53.717Z,90.76
2022-12-23T16:54:21.835Z,91.94
2022-12-23T16:56:53.113Z,91.83
2022-12-23T16:59:21.311Z,91.04
2022-12-23T17:01:55.537Z,91.19
2022-12-23T17:04:27.655Z,90.62
2022-12-23T17:06:55.895Z,91.49
2022-12-23T17:09:23.880Z,91.04
2022-12-23T17:11:54.460Z,91.78
2022-12-23T17:14:25.091Z,91.84
2022-12-23T17:16:53.724Z,92.36
2022-12-23T17:19:27.949Z,91.09
2022-12-23T17:22:02.292Z,90.65
2022-12-23T17:24:30.556Z,90.50
2022-12-23T17:26:59.964Z,90.59
2022-12-23T17:29:30.675Z,89.42
2022-12-23T17:31:59.101Z,90.89
2022-12-23T17:34:27.141Z,90.86
2022-12-23T17:36:56.381Z,89.98
2022-12-23T17:39:24.545Z,89.72
2022-12-23T17:41:52.952Z,89.35
2022-12-23T17:44:21.107Z,89.92
2022-12-23T17:46:49.489Z,89.99
2022-12-23T17:49:17.530Z,88.37
2022-12-23T17:51:45.924Z,88.86
2022-12-23T17:54:22.103Z,87.57
2022-12-23T17:56:51.457Z,88.33
2022-12-23T17:59:19.607Z,88.28
2022-12-23T18:01:48.110Z,87.02
2022-12-23T18:04:16.529Z,87.10
2022-12-23T18:06:44.824Z,86.56
2022-12-23T18:09:12.811Z,86.61
2022-12-23T18:11:45.360Z,86.55
2022-12-23T18:14:21.585Z,86.13
2022-12-23T18:16:50.141Z,86.04
2022-12-23T18:19:20.975Z,86.23
2022-12-23T18:21:51.572Z,86.79
2022-12-23T18:24:19.537Z,86.04
2022-12-23T18:26:48.849Z,86.11
2022-12-23T18:29:16.824Z,86.01
2022-12-23T18:31:51.499Z,87.24
2022-12-23T18:34:21.002Z,87.71
2022-12-23T18:36:52.372Z,87.25
2022-12-23T18:39:20.916Z,86.64
2022-12-23T18:41:50.325Z,87.28
2022-12-23T18:44:21.504Z,87.07
2022-12-23T18:46:51.192Z,88.13
2022-12-23T18:49:19.464Z,87.02
2022-12-23T18:51:48.003Z,87.14
2022-12-23T18:54:16.623Z,87.21
2022-12-23T18:56:45.665Z,86.68
2022-12-23T18:59:22.733Z,87.31
2022-12-23T19:01:56.647Z,88.20
2022-12-23T19:04:24.644Z,87.76
2022-12-23T19:06:53.000Z,87.13
2022-12-23T19:09:23.491Z,87.69
2022-12-23T19:11:54.466Z,88.21
2022-12-23T19:14:22.859Z,89.78
2022-12-23T19:16:52.267Z,89.38
2022-12-23T19:19:21.928Z,88.91
2022-12-23T19:21:52.237Z,89.40
2022-12-23T19:24:20.727Z,89.77
2022-12-23T19:26:49.035Z,88.25
2022-12-23T19:29:17.116Z,88.44
2022-12-23T19:31:45.407Z,89.11
2022-12-23T19:34:15.575Z,87.64
2022-12-23T19:36:44.825Z,88.07
2022-12-23T19:39:16.753Z,88.92
2022-12-23T19:41:46.549Z,89.22
2022-12-23T19:44:14.736Z,87.64
2022-12-23T19:46:43.356Z,88.31
2022-12-23T19:49:19.149Z,88.40
2022-12-23T19:51:49.132Z,87.89
2022-12-23T19:54:18.588Z,87.95
2022-12-23T19:56:51.497Z,87.47
2022-12-23T19:59:20.494Z,86.88
2022-12-23T20:01:49.149Z,86.28
2022-12-23T20:04:17.416Z,86.46
2022-12-23T20:06:46.742Z,86.35
2022-12-23T20:09:14.774Z,87.06
2022-12-23T20:11:46.480Z,88.09
2022-12-23T20:14:17.276Z,88.89
2022-12-23T20:16:45.618Z,87.24
2022-12-23T20:19:13.438Z,88.13
2022-12-23T20:21:41.735Z,88.31
2022-12-23T20:24:09.811Z,88.73
2022-12-23T20:26:38.410Z,88.86
2022-12-23T20:29:06.645Z,89.16
2022-12-23T20:31:37.831Z,89.27
2022-12-23T20:34:09.035Z,88.54
2022-12-23T20:36:37.381Z,88.87
2022-12-23T20:39:05.587Z,88.69
2022-12-23T20:41:34.639Z,88.70
2022-12-23T20:44:34.011Z,88.21
2022-12-23T20:46:52.572Z,88.22
2022-12-23T20:49:20.792Z,87.73
2022-12-23T20:51:48.947Z,87.69
2022-12-23T20:54:16.866Z,87.00
2022-12-23T20:56:45.037Z,87.16
2022-12-23T20:59:13.300Z,87.07
2022-12-23T21:01:42.249Z,86.69
2022-12-23T21:04:14.386Z,86.13
2022-12-23T21:06:45.434Z,86.84
2022-12-23T21:09:16.063Z,86.91
2022-12-23T21:11:47.484Z,87.45
2022-12-23T21:14:15.972Z,86.91
2022-12-23T21:16:44.632Z,86.97
2022-12-23T21:19:19.711Z,87.12
2022-12-23T21:21:49.434Z,87.31
2022-12-23T21:24:18.189Z,87.74
2022-12-23T21:26:51.880Z,87.62
2022-12-23T21:29:25.014Z,88.30
2022-12-23T21:31:53.499Z,89.83
2022-12-23T21:34:21.378Z,89.23
2022-12-23T21:36:49.713Z,88.96
2022-12-23T21:39:17.623Z,89.56
2022-12-23T21:41:49.487Z,89.69
2022-12-23T21:44:17.391Z,91.70
2022-12-23T21:46:45.741Z,91.42
2022-12-23T21:49:13.631Z,91.82
2022-12-23T21:51:42.239Z,90.67
2022-12-23T21:54:12.482Z,91.04
2022-12-23T21:56:41.413Z,90.50
2022-12-23T21:59:13.504Z,91.14
2022-12-23T22:01:43.121Z,90.99
2022-12-23T22:04:11.532Z,90.73
2022-12-23T22:06:44.095Z,89.69
2022-12-23T22:09:17.539Z,89.48
2022-12-23T22:11:46.843Z,90.56
2022-12-23T22:14:18.151Z,91.06
2022-12-23T22:16:46.823Z,91.33
2022-12-23T22:19:15.050Z,92.42
2022-12-23T22:21:43.423Z,91.68
2022-12-23T22:24:11.620Z,92.98
2022-12-23T22:26:40.998Z,92.79
2022-12-23T22:29:10.907Z,95.25
2022-12-23T22:31:45.970Z,95.31
2022-12-23T22:34:17.684Z,96.66
2022-12-23T22:36:46.869Z,98.33
2022-12-23T22:39:21.072Z,99.98
2022-12-23T22:41:52.290Z,100.00
2022-12-23T22:44:21.179Z,100.00
2022-12-23T22:46:50.073Z,100.00
2022-12-23T22:49:18.338Z,100.00
2022-12-23T22:51:46.785Z,100.00
2022-12-23T22:54:15.618Z,100.00
2022-12-23T22:56:46.176Z,100.00
2022-12-23T22:59:25.354Z,100.00
2022-12-23T23:01:53.919Z,100.00
2022-12-23T23:04:22.609Z,100.00
2022-12-23T23:06:52.073Z,100.00
2022-12-23T23:09:23.113Z,100.00
2022-12-23T23:11:51.786Z,100.00
2022-12-23T23:14:20.218Z,100.00
2022-12-23T23:16:48.749Z,100.00
2022-12-23T23:19:20.498Z,100.00
2022-12-23T23:21:49.145Z,100.00
2022-12-23T23:24:17.753Z,100.00
2022-12-23T23:26:46.017Z,100.00
2022-12-23T23:29:15.297Z,100.00
2022-12-23T23:31:44.422Z,100.00
2022-12-23T23:34:13.690Z,100.00
2022-12-23T23:36:42.595Z,100.00
2022-12-23T23:39:12.883Z,100.00
2022-12-23T23:41:42.977Z,100.00
2022-12-23T23:44:12.253Z,100.00
2022-12-23T23:46:40.574Z,100.00
2022-12-23T23:49:08.719Z,100.00
2022-12-23T23:51:37.077Z,100.00
2022-12-23T23:54:05.055Z,100.00
2022-12-23T23:56:38.333Z,100.00
2022-12-23T23:59:09.034Z,100.00
